createdAt,value
2023-04-29T00:00:59.474Z,17.88
2023-04-29T00:05:00.481Z,17.95
2023-04-29T00:09:04.754Z,17.97
2023-04-29T00:13:05.372Z,17.96
2023-04-29T00:17:05.725Z,17.92
2023-04-29T00:21:06.376Z,17.92
2023-04-29T00:25:12.501Z,17.78
2023-04-29T00:29:14.023Z,17.74
2023-04-29T00:33:14.406Z,17.81
2023-04-29T00:37:14.711Z,17.30
2023-04-29T00:41:17.885Z,17.30
2023-04-29T00:45:18.118Z,17.47
2023-04-29T00:49:18.536Z,17.34
2023-04-29T00:53:19.219Z,17.37
2023-04-29T00:57:23.220Z,17.25
2023-04-29T01:01:23.974Z,17.30
2023-04-29T01:05:24.610Z,17.24
2023-04-29T01:09:51.062Z,17.22
2023-04-29T01:14:03.342Z,17.28
2023-04-29T01:18:13.346Z,17.41
2023-04-29T01:22:14.682Z,17.50
2023-04-29T01:26:17.607Z,17.34
2023-04-29T01:30:53.218Z,17.58
2023-04-29T01:35:04.381Z,17.49
2023-04-29T01:39:17.419Z,17.90
2023-04-29T01:43:28.058Z,17.85
2023-04-29T01:47:30.396Z,17.86
2023-04-29T01:51:31.364Z,17.58
2023-04-29T01:55:31.657Z,17.54
2023-04-29T01:59:51.082Z,17.69
2023-04-29T02:04:10.446Z,17.70
2023-04-29T02:08:11.573Z,17.34
2023-04-29T02:12:15.591Z,17.82
2023-04-29T02:16:19.756Z,17.81
2023-04-29T02:20:27.464Z,17.57
2023-04-29T02:24:27.822Z,17.77
2023-04-29T02:28:28.207Z,17.82
2023-04-29T02:32:31.498Z,17.77
2023-04-29T02:36:32.148Z,17.80
2023-04-29T02:40:32.983Z,17.39
2023-04-29T02:44:33.949Z,17.46
2023-04-29T02:48:37.980Z,17.98
2023-04-29T02:52:38.802Z,17.62
2023-04-29T02:56:40.066Z,17.51
2023-04-29T03:00:40.267Z,17.32
2023-04-29T03:04:46.992Z,17.33
2023-04-29T03:08:47.173Z,17.07
2023-04-29T03:12:47.905Z,17.03
2023-04-29T03:16:49.180Z,17.11
2023-04-29T03:20:52.012Z,17.06
2023-04-29T03:24:52.438Z,16.90
2023-04-29T03:28:54.289Z,16.82
2023-04-29T03:32:54.657Z,17.03
2023-04-29T03:36:58.401Z,16.94
2023-04-29T03:40:58.897Z,16.86
2023-04-29T03:44:59.234Z,16.93
2023-04-29T03:48:59.600Z,16.88
2023-04-29T03:53:02.507Z,16.69
2023-04-29T03:57:04.797Z,16.58
2023-04-29T04:01:05.508Z,16.48
2023-04-29T04:05:13.800Z,16.73
2023-04-29T04:09:21.115Z,17.14
2023-04-29T04:13:22.270Z,17.11
2023-04-29T04:17:22.723Z,16.96
2023-04-29T04:21:22.983Z,17.05
2023-04-29T04:25:35.914Z,17.08
2023-04-29T04:29:59.213Z,17.14
2023-04-29T04:34:04.464Z,17.07
2023-04-29T04:38:06.639Z,17.13
2023-04-29T04:42:09.697Z,16.84
2023-04-29T04:46:18.502Z,16.83
2023-04-29T04:50:36.965Z,16.91
2023-04-29T04:54:38.562Z,16.88
2023-04-29T04:58:57.276Z,16.95
2023-04-29T05:02:58.249Z,16.97
2023-04-29T05:06:58.799Z,17.44
2023-04-29T05:11:03.861Z,17.60
2023-04-29T05:15:07.494Z,17.78
2023-04-29T05:19:09.821Z,17.80
2023-04-29T05:23:13.065Z,18.04
2023-04-29T05:27:15.013Z,18.14
2023-04-29T05:31:18.491Z,18.42
2023-04-29T05:35:19.229Z,18.57
2023-04-29T05:39:19.737Z,18.66
2023-04-29T05:43:28.311Z,18.46
2023-04-29T05:47:32.825Z,18.42
2023-04-29T05:51:33.307Z,18.55
2023-04-29T05:55:33.532Z,18.77
2023-04-29T05:59:34.296Z,18.92
2023-04-29T06:03:42.036Z,19.46
2023-04-29T06:08:03.280Z,19.34
2023-04-29T06:12:18.490Z,19.34
2023-04-29T06:16:21.721Z,19.68
2023-04-29T06:20:25.132Z,20.13
2023-04-29T06:24:26.749Z,19.99
2023-04-29T06:28:26.932Z,20.15
2023-04-29T06:32:27.671Z,20.23
2023-04-29T06:36:30.726Z,20.04
2023-04-29T06:40:50.929Z,19.71
2023-04-29T06:45:11.697Z,20.17
2023-04-29T06:49:14.819Z,19.83
2023-04-29T06:53:17.711Z,20.07
2023-04-29T06:57:17.954Z,20.97
2023-04-29T07:01:19.756Z,20.73
2023-04-29T07:05:20.527Z,20.73
2023-04-29T07:09:23.949Z,20.90
2023-04-29T07:13:24.210Z,21.34
2023-04-29T07:17:24.427Z,21.96
2023-04-29T07:21:24.817Z,22.03
2023-04-29T07:25:29.622Z,21.78
2023-04-29T07:29:29.865Z,20.87
2023-04-29T07:33:31.059Z,20.74
2023-04-29T07:37:31.416Z,21.44
2023-04-29T07:41:34.369Z,20.89
2023-04-29T07:45:34.592Z,21.33
2023-04-29T07:49:35.850Z,21.19
2023-04-29T07:53:36.347Z,20.95
2023-04-29T07:57:39.121Z,21.59
2023-04-29T08:01:39.416Z,21.51
2023-04-29T08:05:40.014Z,21.27
2023-04-29T08:09:40.352Z,21.41
2023-04-29T08:13:45.925Z,21.67
2023-04-29T08:17:46.180Z,20.86
2023-04-29T08:21:46.479Z,21.52
2023-04-29T08:25:46.919Z,21.28
2023-04-29T08:29:49.680Z,21.61
2023-04-29T08:33:50.362Z,21.49
2023-04-29T08:37:50.612Z,21.59
2023-04-29T08:41:52.285Z,21.63
2023-04-29T08:45:56.147Z,22.21
2023-04-29T08:49:57.584Z,21.90
2023-04-29T08:53:59.556Z,21.41
2023-04-29T08:58:00.741Z,22.02
2023-04-29T09:02:04.241Z,22.97
2023-04-29T09:06:06.506Z,24.36
2023-04-29T09:10:12.362Z,23.13
2023-04-29T09:14:12.594Z,22.75
2023-04-29T09:18:15.280Z,23.17
2023-04-29T09:22:15.522Z,22.99
2023-04-29T09:26:17.422Z,22.13
2023-04-29T09:30:19.655Z,22.14
2023-04-29T09:34:35.967Z,22.76
2023-04-29T09:38:39.504Z,23.13
2023-04-29T09:42:46.625Z,23.52
2023-04-29T09:46:47.245Z,23.38
2023-04-29T09:51:05.031Z,22.63
2023-04-29T09:55:10.203Z,22.00
2023-04-29T09:59:12.188Z,22.34
2023-04-29T10:03:13.285Z,22.01
2023-04-29T10:07:19.285Z,22.56
2023-04-29T10:11:20.895Z,22.23
2023-04-29T10:15:30.741Z,22.57
2023-04-29T10:19:38.368Z,22.73
2023-04-29T10:23:42.582Z,22.37
2023-04-29T10:27:45.968Z,22.69
2023-04-29T10:31:47.716Z,22.45
2023-04-29T10:35:51.221Z,22.59
2023-04-29T10:40:04.421Z,22.13
2023-04-29T10:44:04.795Z,21.60
2023-04-29T10:48:22.130Z,21.64
2023-04-29T10:52:22.585Z,21.69
2023-04-29T10:56:25.426Z,22.55
2023-04-29T11:00:29.292Z,22.65
2023-04-29T11:04:29.492Z,22.05
2023-04-29T11:08:29.850Z,22.01
2023-04-29T11:12:32.707Z,22.02
2023-04-29T11:16:33.027Z,23.39
2023-04-29T11:20:33.340Z,24.50
2023-04-29T11:24:33.658Z,24.96
2023-04-29T11:28:36.992Z,23.96
2023-04-29T11:32:40.657Z,23.60
2023-04-29T11:36:40.987Z,24.08
2023-04-29T11:40:45.238Z,23.55
2023-04-29T11:44:48.815Z,22.69
2023-04-29T11:48:53.414Z,22.46
2023-04-29T11:52:53.768Z,24.17
2023-04-29T11:56:57.265Z,24.10
2023-04-29T12:01:01.973Z,24.75
2023-04-29T12:05:03.959Z,25.17
2023-04-29T12:09:04.679Z,25.16
2023-04-29T12:13:05.444Z,24.28
2023-04-29T12:17:09.708Z,24.90
2023-04-29T12:21:10.491Z,24.82
2023-04-29T12:25:12.652Z,24.65
2023-04-29T12:29:14.237Z,24.48
2023-04-29T12:33:22.847Z,23.85
2023-04-29T12:37:26.214Z,23.15
2023-04-29T12:41:40.861Z,23.54
2023-04-29T12:45:43.000Z,23.88
2023-04-29T12:49:50.304Z,23.55
2023-04-29T12:53:50.598Z,24.20
2023-04-29T12:57:50.734Z,24.17
2023-04-29T13:01:50.996Z,23.57
2023-04-29T13:05:55.129Z,23.28
2023-04-29T13:13:55.554Z,22.64
2023-04-29T13:17:56.364Z,22.69
2023-04-29T13:21:59.173Z,22.95
2023-04-29T13:25:59.444Z,23.30
2023-04-29T13:29:59.714Z,22.86
2023-04-29T13:33:59.899Z,23.07
2023-04-29T13:38:02.758Z,22.94
2023-04-29T13:42:04.290Z,23.18
2023-04-29T13:46:04.601Z,23.44
2023-04-29T13:54:50.203Z,22.23
2023-04-29T13:59:08.462Z,22.33
2023-04-29T14:06:54.801Z,21.79
2023-04-29T14:10:58.231Z,21.73
2023-04-29T14:15:00.097Z,22.07
2023-04-29T14:19:03.402Z,22.16
2023-04-29T14:23:04.101Z,22.00
2023-04-29T14:27:07.483Z,22.47
2023-04-29T14:31:07.784Z,23.29
2023-04-29T14:35:09.603Z,23.94
2023-04-29T14:39:09.716Z,24.06
2023-04-29T14:43:12.475Z,24.19
2023-04-29T14:47:12.847Z,24.15
2023-04-29T14:51:13.662Z,24.39
2023-04-29T14:55:13.829Z,25.10
2023-04-29T14:59:17.274Z,25.73
2023-04-29T15:03:22.600Z,26.27
2023-04-29T15:07:23.268Z,25.62
2023-04-29T15:11:24.368Z,24.87
2023-04-29T15:15:27.605Z,25.04
2023-04-29T15:19:27.874Z,25.64
2023-04-29T15:23:28.189Z,26.11
2023-04-29T15:27:28.478Z,26.03
2023-04-29T15:31:31.323Z,25.36
2023-04-29T15:35:31.872Z,24.47
2023-04-29T15:39:32.104Z,24.35
2023-04-29T15:43:33.705Z,23.76
2023-04-29T15:47:36.522Z,23.61
2023-04-29T15:51:36.779Z,23.45
2023-04-29T15:55:37.409Z,23.17
2023-04-29T15:59:37.585Z,23.66
2023-04-29T16:03:40.389Z,24.00
2023-04-29T16:07:40.725Z,23.64
2023-04-29T16:11:40.948Z,23.39
2023-04-29T16:15:41.404Z,23.20
2023-04-29T16:19:44.809Z,22.96
2023-04-29T16:23:45.099Z,22.55
2023-04-29T16:27:45.258Z,22.19
2023-04-29T16:31:45.527Z,21.69
2023-04-29T16:35:48.556Z,21.77
2023-04-29T16:39:49.193Z,21.71
2023-04-29T16:43:53.149Z,21.92
2023-04-29T16:47:54.763Z,21.93
2023-04-29T16:51:57.818Z,21.53
2023-04-29T16:55:58.290Z,21.48
2023-04-29T16:59:58.637Z,21.36
2023-04-29T17:03:59.605Z,21.08
2023-04-29T17:08:03.609Z,20.83
2023-04-29T17:12:04.319Z,21.10
2023-04-29T17:16:04.710Z,20.66
2023-04-29T17:20:05.139Z,20.95
2023-04-29T17:24:08.607Z,20.95
2023-04-29T17:28:09.054Z,21.00
2023-04-29T17:32:15.213Z,21.09
2023-04-29T17:36:15.539Z,21.16
2023-04-29T17:40:18.556Z,20.88
2023-04-29T17:44:20.580Z,20.84
2023-04-29T17:48:22.765Z,20.63
2023-04-29T17:52:23.842Z,20.44
2023-04-29T17:56:27.485Z,20.69
2023-04-29T18:00:28.248Z,20.67
2023-04-29T18:04:29.003Z,20.54
2023-04-29T18:08:29.501Z,20.46
2023-04-29T18:12:32.763Z,20.08
2023-04-29T18:16:33.308Z,20.01
2023-04-29T18:20:33.724Z,19.96
2023-04-29T18:24:34.019Z,19.70
2023-04-29T18:28:37.436Z,19.86
2023-04-29T18:32:37.751Z,19.95
2023-04-29T18:36:38.151Z,19.90
2023-04-29T18:40:39.039Z,19.74
2023-04-29T18:44:42.477Z,19.55
2023-04-29T18:48:42.885Z,19.61
2023-04-29T18:52:43.414Z,19.68
2023-04-29T18:56:44.114Z,19.49
2023-04-29T19:00:47.248Z,19.40
2023-04-29T19:04:47.586Z,19.43
2023-04-29T19:08:47.988Z,19.44
2023-04-29T19:12:48.322Z,19.45
2023-04-29T19:16:51.229Z,19.44
2023-04-29T19:20:53.715Z,19.63
2023-04-29T19:24:54.108Z,19.56
2023-04-29T19:28:54.383Z,19.46
2023-04-29T19:32:57.252Z,19.40
2023-04-29T19:36:57.594Z,19.42
2023-04-29T19:40:59.458Z,19.41
2023-04-29T19:45:00.084Z,19.35
2023-04-29T19:49:03.036Z,19.41
2023-04-29T19:53:03.640Z,19.33
2023-04-29T19:57:04.075Z,19.47
2023-04-29T20:01:05.243Z,19.40
2023-04-29T20:05:12.255Z,19.35
2023-04-29T20:09:14.635Z,19.51
2023-04-29T20:13:15.886Z,18.63
2023-04-29T20:17:17.352Z,19.36
2023-04-29T20:21:20.298Z,19.21
2023-04-29T20:25:20.748Z,19.20
2023-04-29T20:29:21.418Z,19.17
2023-04-29T20:33:21.824Z,19.13
2023-04-29T20:37:28.496Z,18.97
2023-04-29T20:41:30.725Z,19.03
2023-04-29T20:45:31.816Z,18.75
2023-04-29T20:49:32.352Z,18.55
2023-04-29T20:53:35.601Z,19.04
2023-04-29T20:57:36.468Z,18.50
2023-04-29T21:01:38.043Z,18.74
2023-04-29T21:05:38.983Z,18.52
2023-04-29T21:09:42.213Z,17.92
2023-04-29T21:13:42.881Z,18.64
2023-04-29T21:17:44.730Z,18.30
2023-04-29T21:21:45.411Z,18.82
2023-04-29T21:25:48.363Z,18.32
2023-04-29T21:29:48.822Z,17.99
2023-04-29T21:33:49.847Z,17.44
2023-04-29T21:37:50.393Z,18.35
2023-04-29T21:41:55.067Z,18.03
2023-04-29T21:45:57.404Z,18.21
2023-04-29T21:49:58.346Z,17.74
2023-04-29T21:53:58.614Z,18.22
2023-04-29T21:58:01.612Z,18.04
2023-04-29T22:02:04.370Z,18.07
2023-04-29T22:06:04.677Z,18.03
2023-04-29T22:10:05.102Z,17.80
2023-04-29T22:14:08.618Z,17.94
2023-04-29T22:18:08.931Z,18.05
2023-04-29T22:22:09.718Z,18.18
2023-04-29T22:26:09.965Z,18.20
2023-04-29T22:30:14.665Z,17.92
2023-04-29T22:34:15.134Z,17.71
2023-04-29T22:38:15.546Z,17.79
2023-04-29T22:42:16.090Z,17.95
2023-04-29T22:46:20.161Z,17.77
2023-04-29T22:50:22.046Z,18.16
2023-04-29T22:54:22.271Z,18.02
2023-04-29T22:58:24.728Z,18.20
2023-04-29T23:02:30.351Z,18.11
2023-04-29T23:06:30.971Z,17.88
2023-04-29T23:10:31.405Z,17.91
2023-04-29T23:14:31.669Z,17.98
2023-04-29T23:18:35.570Z,17.95
2023-04-29T23:22:36.243Z,17.91
2023-04-29T23:26:36.436Z,17.91
2023-04-29T23:30:36.632Z,17.86
2023-04-29T23:34:39.608Z,17.48
2023-04-29T23:38:40.867Z,17.74
2023-04-29T23:42:41.210Z,17.81
2023-04-29T23:46:42.031Z,17.71
2023-04-29T23:50:45.249Z,17.54
2023-04-29T23:54:45.776Z,17.88
2023-04-29T23:58:46.214Z,17.88
